sensor_id;sensor_type;location;lat;lon;timestamp;temperature;humidity
38568;DHT22;24338;48.280;10.970;2023-04-06T00:00:57;-1.50;99.90
38568;DHT22;24338;48.280;10.970;2023-04-06T00:03:24;-1.50;99.90
38568;DHT22;24338;48.280;10.970;2023-04-06T00:05:52;-1.50;99.90
38568;DHT22;24338;48.280;10.970;2023-04-06T00:08:18;-1.50;99.90
38568;DHT22;24338;48.280;10.970;2023-04-06T00:10:47;-1.60;99.90
38568;DHT22;24338;48.280;10.970;2023-04-06T00:13:14;-1.60;99.90
38568;DHT22;24338;48.280;10.970;2023-04-06T00:15:41;-1.60;99.90
38568;DHT22;24338;48.280;10.970;2023-04-06T00:18:08;-1.60;99.90
38568;DHT22;24338;48.280;10.970;2023-04-06T00:20:36;-1.60;99.90
38568;DHT22;24338;48.280;10.970;2023-04-06T00:23:03;-1.60;99.90
38568;DHT22;24338;48.280;10.970;2023-04-06T00:25:30;-1.60;99.90
38568;DHT22;24338;48.280;10.970;2023-04-06T00:27:56;-1.60;99.90
38568;DHT22;24338;48.280;10.970;2023-04-06T00:30:23;-1.70;99.90
38568;DHT22;24338;48.280;10.970;2023-04-06T00:32:51;-1.60;99.90
38568;DHT22;24338;48.280;10.970;2023-04-06T00:35:18;-1.70;99.90
38568;DHT22;24338;48.280;10.970;2023-04-06T00:37:46;-1.60;99.90
38568;DHT22;24338;48.280;10.970;2023-04-06T00:40:15;-1.60;99.90
38568;DHT22;24338;48.280;10.970;2023-04-06T00:42:42;-1.70;99.90
38568;DHT22;24338;48.280;10.970;2023-04-06T00:45:09;-1.70;99.90
38568;DHT22;24338;48.280;10.970;2023-04-06T00:47:36;-1.70;99.90
38568;DHT22;24338;48.280;10.970;2023-04-06T00:50:04;-1.70;99.90
38568;DHT22;24338;48.280;10.970;2023-04-06T00:52:31;-1.70;99.90
38568;DHT22;24338;48.280;10.970;2023-04-06T00:54:58;-1.70;99.90
38568;DHT22;24338;48.280;10.970;2023-04-06T00:57:25;-1.70;99.90
38568;DHT22;24338;48.280;10.970;2023-04-06T00:59:53;-1.80;99.90
38568;DHT22;24338;48.280;10.970;2023-04-06T01:02:20;-1.80;99.90
38568;DHT22;24338;48.280;10.970;2023-04-06T01:04:46;-1.90;99.90
38568;DHT22;24338;48.280;10.970;2023-04-06T01:07:13;-1.90;99.90
38568;DHT22;24338;48.280;10.970;2023-04-06T01:09:40;-2.00;99.90
38568;DHT22;24338;48.280;10.970;2023-04-06T01:12:08;-2.00;99.90
38568;DHT22;24338;48.280;10.970;2023-04-06T01:14:35;-1.90;99.90
38568;DHT22;24338;48.280;10.970;2023-04-06T01:17:02;-2.00;99.90
38568;DHT22;24338;48.280;10.970;2023-04-06T01:19:29;-1.90;99.90
38568;DHT22;24338;48.280;10.970;2023-04-06T01:21:56;-1.90;99.90
38568;DHT22;24338;48.280;10.970;2023-04-06T01:24:23;-1.90;99.90
38568;DHT22;24338;48.280;10.970;2023-04-06T01:26:50;-1.90;99.90
38568;DHT22;24338;48.280;10.970;2023-04-06T01:29:16;-1.90;99.90
38568;DHT22;24338;48.280;10.970;2023-04-06T01:31:43;-1.90;99.90
38568;DHT22;24338;48.280;10.970;2023-04-06T01:34:10;-1.90;99.90
38568;DHT22;24338;48.280;10.970;2023-04-06T01:36:37;-1.90;99.90
38568;DHT22;24338;48.280;10.970;2023-04-06T01:39:04;-1.90;99.90
38568;DHT22;24338;48.280;10.970;2023-04-06T01:41:31;-1.90;99.90
38568;DHT22;24338;48.280;10.970;2023-04-06T01:43:58;-1.90;99.90
38568;DHT22;24338;48.280;10.970;2023-04-06T01:46:25;-2.00;99.90
38568;DHT22;24338;48.280;10.970;2023-04-06T01:48:52;-2.00;99.90
38568;DHT22;24338;48.280;10.970;2023-04-06T01:51:19;-2.00;99.90
38568;DHT22;24338;48.280;10.970;2023-04-06T01:53:46;-2.10;99.90
38568;DHT22;24338;48.280;10.970;2023-04-06T01:56:14;-2.10;99.90
38568;DHT22;24338;48.280;10.970;2023-04-06T01:58:42;-2.10;99.90
38568;DHT22;24338;48.280;10.970;2023-04-06T02:01:08;-2.10;99.90
38568;DHT22;24338;48.280;10.970;2023-04-06T02:03:36;-2.10;99.90
38568;DHT22;24338;48.280;10.970;2023-04-06T02:06:03;-2.10;99.90
38568;DHT22;24338;48.280;10.970;2023-04-06T02:08:30;-2.10;99.90
38568;DHT22;24338;48.280;10.970;2023-04-06T02:10:57;-2.10;99.90
38568;DHT22;24338;48.280;10.970;2023-04-06T02:13:24;-2.20;99.90
38568;DHT22;24338;48.280;10.970;2023-04-06T02:15:50;-2.20;99.90
38568;DHT22;24338;48.280;10.970;2023-04-06T02:18:18;-2.20;99.90
38568;DHT22;24338;48.280;10.970;2023-04-06T02:20:45;-2.20;99.90
38568;DHT22;24338;48.280;10.970;2023-04-06T02:23:12;-2.20;99.90
38568;DHT22;24338;48.280;10.970;2023-04-06T02:25:39;-2.20;99.90
38568;DHT22;24338;48.280;10.970;2023-04-06T02:28:06;-2.20;99.90
38568;DHT22;24338;48.280;10.970;2023-04-06T02:30:34;-2.30;99.90
38568;DHT22;24338;48.280;10.970;2023-04-06T02:33:01;-2.30;99.90
38568;DHT22;24338;48.280;10.970;2023-04-06T02:35:29;-2.40;99.90
38568;DHT22;24338;48.280;10.970;2023-04-06T02:37:56;-2.40;99.90
38568;DHT22;24338;48.280;10.970;2023-04-06T02:40:23;-2.40;99.90
38568;DHT22;24338;48.280;10.970;2023-04-06T02:42:50;-2.50;99.90
38568;DHT22;24338;48.280;10.970;2023-04-06T02:45:17;-2.50;99.90
38568;DHT22;24338;48.280;10.970;2023-04-06T02:47:44;-2.50;99.90
38568;DHT22;24338;48.280;10.970;2023-04-06T02:50:11;-2.50;99.90
38568;DHT22;24338;48.280;10.970;2023-04-06T02:52:38;-2.50;99.90
38568;DHT22;24338;48.280;10.970;2023-04-06T02:55:06;-2.50;99.90
38568;DHT22;24338;48.280;10.970;2023-04-06T02:57:34;-2.50;99.90
38568;DHT22;24338;48.280;10.970;2023-04-06T03:00:01;-2.50;99.90
38568;DHT22;24338;48.280;10.970;2023-04-06T03:02:28;-2.50;99.90
38568;DHT22;24338;48.280;10.970;2023-04-06T03:04:55;-2.50;99.90
38568;DHT22;24338;48.280;10.970;2023-04-06T03:07:22;-2.50;99.90
38568;DHT22;24338;48.280;10.970;2023-04-06T03:09:48;-2.50;99.90
38568;DHT22;24338;48.280;10.970;2023-04-06T03:12:16;-2.60;99.90
38568;DHT22;24338;48.280;10.970;2023-04-06T03:14:43;-2.60;99.90
38568;DHT22;24338;48.280;10.970;2023-04-06T03:17:10;-2.60;99.90
38568;DHT22;24338;48.280;10.970;2023-04-06T03:19:36;-2.60;99.90
38568;DHT22;24338;48.280;10.970;2023-04-06T03:22:03;-2.60;99.90
38568;DHT22;24338;48.280;10.970;2023-04-06T03:24:30;-2.60;99.90
38568;DHT22;24338;48.280;10.970;2023-04-06T03:26:57;-2.60;99.90
38568;DHT22;24338;48.280;10.970;2023-04-06T03:29:24;-2.60;99.90
38568;DHT22;24338;48.280;10.970;2023-04-06T03:31:51;-2.70;99.90
38568;DHT22;24338;48.280;10.970;2023-04-06T03:34:17;-2.70;99.90
38568;DHT22;24338;48.280;10.970;2023-04-06T03:36:44;-2.70;99.90
38568;DHT22;24338;48.280;10.970;2023-04-06T03:39:13;-2.70;99.90
38568;DHT22;24338;48.280;10.970;2023-04-06T03:41:40;-2.70;99.90
38568;DHT22;24338;48.280;10.970;2023-04-06T03:44:07;-2.70;99.90
38568;DHT22;24338;48.280;10.970;2023-04-06T03:46:34;-2.80;99.90
38568;DHT22;24338;48.280;10.970;2023-04-06T03:49:01;-2.80;99.90
38568;DHT22;24338;48.280;10.970;2023-04-06T03:51:28;-2.80;99.90
38568;DHT22;24338;48.280;10.970;2023-04-06T03:53:54;-2.80;99.90
38568;DHT22;24338;48.280;10.970;2023-04-06T03:56:21;-2.90;99.90
38568;DHT22;24338;48.280;10.970;2023-04-06T03:58:48;-2.90;99.90
38568;DHT22;24338;48.280;10.970;2023-04-06T04:01:18;-2.90;99.90
38568;DHT22;24338;48.280;10.970;2023-04-06T04:03:45;-2.90;99.90
38568;DHT22;24338;48.280;10.970;2023-04-06T04:06:13;-2.90;99.90
38568;DHT22;24338;48.280;10.970;2023-04-06T04:08:40;-2.90;99.90
38568;DHT22;24338;48.280;10.970;2023-04-06T04:11:07;-2.90;99.90
38568;DHT22;24338;48.280;10.970;2023-04-06T04:13:34;-2.90;99.90
38568;DHT22;24338;48.280;10.970;2023-04-06T04:16:01;-2.90;99.90
38568;DHT22;24338;48.280;10.970;2023-04-06T04:18:28;-2.90;99.90
38568;DHT22;24338;48.280;10.970;2023-04-06T04:20:54;-2.90;99.90
38568;DHT22;24338;48.280;10.970;2023-04-06T04:23:21;-2.90;99.90
38568;DHT22;24338;48.280;10.970;2023-04-06T04:25:48;-3.00;99.90
38568;DHT22;24338;48.280;10.970;2023-04-06T04:28:15;-2.90;99.90
38568;DHT22;24338;48.280;10.970;2023-04-06T04:30:42;-2.90;99.90
38568;DHT22;24338;48.280;10.970;2023-04-06T04:33:08;-2.90;99.90
38568;DHT22;24338;48.280;10.970;2023-04-06T04:35:35;-2.90;99.90
38568;DHT22;24338;48.280;10.970;2023-04-06T04:38:02;-3.00;99.90
38568;DHT22;24338;48.280;10.970;2023-04-06T04:40:29;-3.00;99.90
38568;DHT22;24338;48.280;10.970;2023-04-06T04:42:56;-3.00;99.90
38568;DHT22;24338;48.280;10.970;2023-04-06T04:45:22;-3.00;99.90
38568;DHT22;24338;48.280;10.970;2023-04-06T04:47:49;-3.00;99.90
38568;DHT22;24338;48.280;10.970;2023-04-06T04:50:16;-3.00;99.90
38568;DHT22;24338;48.280;10.970;2023-04-06T04:52:43;-3.00;99.90
38568;DHT22;24338;48.280;10.970;2023-04-06T04:55:10;-3.00;99.90
38568;DHT22;24338;48.280;10.970;2023-04-06T04:57:37;-3.00;99.90
38568;DHT22;24338;48.280;10.970;2023-04-06T05:00:05;-3.00;99.90
38568;DHT22;24338;48.280;10.970;2023-04-06T05:02:32;-3.10;99.90
38568;DHT22;24338;48.280;10.970;2023-04-06T05:04:59;-3.10;99.90
38568;DHT22;24338;48.280;10.970;2023-04-06T05:07:26;-3.10;99.90
38568;DHT22;24338;48.280;10.970;2023-04-06T05:09:53;-3.20;99.90
38568;DHT22;24338;48.280;10.970;2023-04-06T05:12:19;-3.20;99.90
38568;DHT22;24338;48.280;10.970;2023-04-06T05:14:47;-3.10;99.90
38568;DHT22;24338;48.280;10.970;2023-04-06T05:17:14;-3.10;99.90
38568;DHT22;24338;48.280;10.970;2023-04-06T05:19:41;-3.10;99.90
38568;DHT22;24338;48.280;10.970;2023-04-06T05:22:08;-3.10;99.90
38568;DHT22;24338;48.280;10.970;2023-04-06T05:24:34;-3.10;99.90
38568;DHT22;24338;48.280;10.970;2023-04-06T05:27:02;-3.10;99.90
38568;DHT22;24338;48.280;10.970;2023-04-06T05:29:29;-3.00;99.90
38568;DHT22;24338;48.280;10.970;2023-04-06T05:31:56;-3.00;99.90
38568;DHT22;24338;48.280;10.970;2023-04-06T05:34:23;-2.90;99.90
38568;DHT22;24338;48.280;10.970;2023-04-06T05:36:50;-2.90;99.90
38568;DHT22;24338;48.280;10.970;2023-04-06T05:39:17;-2.80;99.90
38568;DHT22;24338;48.280;10.970;2023-04-06T05:41:43;-2.70;99.90
38568;DHT22;24338;48.280;10.970;2023-04-06T05:44:10;-2.70;99.90
38568;DHT22;24338;48.280;10.970;2023-04-06T05:46:37;-2.60;99.90
38568;DHT22;24338;48.280;10.970;2023-04-06T05:49:04;-2.60;99.90
38568;DHT22;24338;48.280;10.970;2023-04-06T05:51:32;-2.50;99.90
38568;DHT22;24338;48.280;10.970;2023-04-06T05:53:59;-2.40;99.90
38568;DHT22;24338;48.280;10.970;2023-04-06T05:56:26;-2.30;99.90
38568;DHT22;24338;48.280;10.970;2023-04-06T05:58:53;-2.30;99.90
38568;DHT22;24338;48.280;10.970;2023-04-06T06:01:20;-2.20;99.90
38568;DHT22;24338;48.280;10.970;2023-04-06T06:03:47;-2.10;99.90
38568;DHT22;24338;48.280;10.970;2023-04-06T06:06:14;-2.10;99.90
38568;DHT22;24338;48.280;10.970;2023-04-06T06:08:40;-2.00;99.90
38568;DHT22;24338;48.280;10.970;2023-04-06T06:11:07;-1.90;99.90
38568;DHT22;24338;48.280;10.970;2023-04-06T06:13:34;-1.90;99.90
38568;DHT22;24338;48.280;10.970;2023-04-06T06:16:01;-1.80;99.90
38568;DHT22;24338;48.280;10.970;2023-04-06T06:18:31;-1.70;99.90
38568;DHT22;24338;48.280;10.970;2023-04-06T06:20:58;-1.60;99.90
38568;DHT22;24338;48.280;10.970;2023-04-06T06:23:25;-1.50;99.90
38568;DHT22;24338;48.280;10.970;2023-04-06T06:25:53;-1.50;99.90
38568;DHT22;24338;48.280;10.970;2023-04-06T06:28:20;-1.40;99.90
38568;DHT22;24338;48.280;10.970;2023-04-06T06:30:47;-1.30;99.90
38568;DHT22;24338;48.280;10.970;2023-04-06T06:33:13;-1.20;99.90
38568;DHT22;24338;48.280;10.970;2023-04-06T06:35:40;-1.10;99.90
38568;DHT22;24338;48.280;10.970;2023-04-06T06:38:07;-1.00;99.90
38568;DHT22;24338;48.280;10.970;2023-04-06T06:40:34;-0.90;99.90
38568;DHT22;24338;48.280;10.970;2023-04-06T06:43:01;-0.80;99.90
38568;DHT22;24338;48.280;10.970;2023-04-06T06:45:28;-0.70;99.90
38568;DHT22;24338;48.280;10.970;2023-04-06T06:47:56;-0.60;99.90
38568;DHT22;24338;48.280;10.970;2023-04-06T06:50:23;-0.60;99.90
38568;DHT22;24338;48.280;10.970;2023-04-06T06:52:50;-0.50;99.90
38568;DHT22;24338;48.280;10.970;2023-04-06T06:55:17;-0.40;99.90
38568;DHT22;24338;48.280;10.970;2023-04-06T06:57:45;-0.30;99.90
38568;DHT22;24338;48.280;10.970;2023-04-06T07:00:13;-0.20;99.90
38568;DHT22;24338;48.280;10.970;2023-04-06T07:02:41;-0.10;99.90
38568;DHT22;24338;48.280;10.970;2023-04-06T07:05:08;0.10;99.90
38568;DHT22;24338;48.280;10.970;2023-04-06T07:07:53;0.30;99.90
38568;DHT22;24338;48.280;10.970;2023-04-06T07:10:20;0.40;99.90
38568;DHT22;24338;48.280;10.970;2023-04-06T07:12:46;0.60;99.90
38568;DHT22;24338;48.280;10.970;2023-04-06T07:15:13;0.70;99.90
38568;DHT22;24338;48.280;10.970;2023-04-06T07:17:41;0.90;99.90
38568;DHT22;24338;48.280;10.970;2023-04-06T07:20:08;0.90;99.90
38568;DHT22;24338;48.280;10.970;2023-04-06T07:22:35;0.90;99.90
38568;DHT22;24338;48.280;10.970;2023-04-06T07:25:02;1.00;99.90
38568;DHT22;24338;48.280;10.970;2023-04-06T07:27:32;1.00;99.90
38568;DHT22;24338;48.280;10.970;2023-04-06T07:29:58;1.10;99.90
38568;DHT22;24338;48.280;10.970;2023-04-06T07:32:25;1.10;99.90
38568;DHT22;24338;48.280;10.970;2023-04-06T07:34:52;1.20;99.90
38568;DHT22;24338;48.280;10.970;2023-04-06T07:37:21;1.30;99.90
38568;DHT22;24338;48.280;10.970;2023-04-06T07:39:48;1.40;99.90
38568;DHT22;24338;48.280;10.970;2023-04-06T07:42:17;1.60;99.90
38568;DHT22;24338;48.280;10.970;2023-04-06T07:44:44;1.70;99.90
38568;DHT22;24338;48.280;10.970;2023-04-06T07:47:10;1.80;99.90
38568;DHT22;24338;48.280;10.970;2023-04-06T07:49:37;2.10;99.90
38568;DHT22;24338;48.280;10.970;2023-04-06T07:52:07;2.30;99.90
38568;DHT22;24338;48.280;10.970;2023-04-06T07:54:34;2.40;99.90
38568;DHT22;24338;48.280;10.970;2023-04-06T07:57:01;2.60;99.90
38568;DHT22;24338;48.280;10.970;2023-04-06T07:59:27;2.70;99.90
38568;DHT22;24338;48.280;10.970;2023-04-06T08:01:54;2.90;99.90
38568;DHT22;24338;48.280;10.970;2023-04-06T08:04:24;3.20;99.90
38568;DHT22;24338;48.280;10.970;2023-04-06T08:06:51;3.40;99.90
38568;DHT22;24338;48.280;10.970;2023-04-06T08:09:17;3.60;99.90
38568;DHT22;24338;48.280;10.970;2023-04-06T08:11:44;3.70;99.90
38568;DHT22;24338;48.280;10.970;2023-04-06T08:14:12;3.80;99.90
38568;DHT22;24338;48.280;10.970;2023-04-06T08:16:39;3.90;99.90
38568;DHT22;24338;48.280;10.970;2023-04-06T08:19:06;4.00;99.90
38568;DHT22;24338;48.280;10.970;2023-04-06T08:21:35;4.10;99.90
38568;DHT22;24338;48.280;10.970;2023-04-06T08:24:02;4.30;99.90
38568;DHT22;24338;48.280;10.970;2023-04-06T08:26:29;4.40;99.90
38568;DHT22;24338;48.280;10.970;2023-04-06T08:28:56;4.50;99.90
38568;DHT22;24338;48.280;10.970;2023-04-06T08:31:23;4.60;99.90
38568;DHT22;24338;48.280;10.970;2023-04-06T08:33:50;4.80;99.90
38568;DHT22;24338;48.280;10.970;2023-04-06T08:36:17;4.80;99.90
38568;DHT22;24338;48.280;10.970;2023-04-06T08:38:46;4.90;99.90
38568;DHT22;24338;48.280;10.970;2023-04-06T08:41:13;5.10;99.90
38568;DHT22;24338;48.280;10.970;2023-04-06T08:44:00;5.20;99.90
38568;DHT22;24338;48.280;10.970;2023-04-06T08:46:44;5.40;99.90
38568;DHT22;24338;48.280;10.970;2023-04-06T08:49:12;5.50;99.90
38568;DHT22;24338;48.280;10.970;2023-04-06T08:51:41;5.70;99.90
38568;DHT22;24338;48.280;10.970;2023-04-06T08:54:09;5.80;99.90
38568;DHT22;24338;48.280;10.970;2023-04-06T08:56:40;6.00;98.50
38568;DHT22;24338;48.280;10.970;2023-04-06T08:59:08;6.00;95.60
38568;DHT22;24338;48.280;10.970;2023-04-06T09:01:40;6.10;91.90
38568;DHT22;24338;48.280;10.970;2023-04-06T09:04:10;6.20;91.20
38568;DHT22;24338;48.280;10.970;2023-04-06T09:06:40;6.30;93.90
38568;DHT22;24338;48.280;10.970;2023-04-06T09:09:07;6.40;91.50
38568;DHT22;24338;48.280;10.970;2023-04-06T09:11:48;6.50;89.40
38568;DHT22;24338;48.280;10.970;2023-04-06T09:14:16;6.70;91.30
38568;DHT22;24338;48.280;10.970;2023-04-06T09:16:44;6.80;91.90
38568;DHT22;24338;48.280;10.970;2023-04-06T09:19:12;7.00;92.00
38568;DHT22;24338;48.280;10.970;2023-04-06T09:21:39;7.10;90.50
38568;DHT22;24338;48.280;10.970;2023-04-06T09:24:09;7.30;87.40
38568;DHT22;24338;48.280;10.970;2023-04-06T09:26:46;7.40;84.40
38568;DHT22;24338;48.280;10.970;2023-04-06T09:29:24;7.50;79.70
38568;DHT22;24338;48.280;10.970;2023-04-06T09:32:05;7.80;83.00
38568;DHT22;24338;48.280;10.970;2023-04-06T09:34:33;7.90;81.70
38568;DHT22;24338;48.280;10.970;2023-04-06T09:37:00;8.00;82.80
38568;DHT22;24338;48.280;10.970;2023-04-06T09:39:27;8.20;82.90
38568;DHT22;24338;48.280;10.970;2023-04-06T09:41:54;8.20;81.60
38568;DHT22;24338;48.280;10.970;2023-04-06T09:44:22;8.40;81.10
38568;DHT22;24338;48.280;10.970;2023-04-06T09:46:51;8.60;81.00
38568;DHT22;24338;48.280;10.970;2023-04-06T09:49:30;8.60;80.20
38568;DHT22;24338;48.280;10.970;2023-04-06T09:52:00;8.80;79.70
38568;DHT22;24338;48.280;10.970;2023-04-06T09:54:31;9.10;79.70
38568;DHT22;24338;48.280;10.970;2023-04-06T09:57:14;9.30;76.50
38568;DHT22;24338;48.280;10.970;2023-04-06T10:00:04;9.40;73.80
38568;DHT22;24338;48.280;10.970;2023-04-06T10:02:48;9.50;71.20
38568;DHT22;24338;48.280;10.970;2023-04-06T10:05:31;9.60;73.00
38568;DHT22;24338;48.280;10.970;2023-04-06T10:08:04;9.90;71.50
38568;DHT22;24338;48.280;10.970;2023-04-06T10:10:33;10.10;72.20
38568;DHT22;24338;48.280;10.970;2023-04-06T10:13:00;10.50;71.60
38568;DHT22;24338;48.280;10.970;2023-04-06T10:15:30;10.70;68.90
38568;DHT22;24338;48.280;10.970;2023-04-06T10:17:58;10.80;65.50
38568;DHT22;24338;48.280;10.970;2023-04-06T10:20:33;10.60;66.20
38568;DHT22;24338;48.280;10.970;2023-04-06T10:23:12;10.60;62.90
38568;DHT22;24338;48.280;10.970;2023-04-06T10:26:13;10.70;66.30
38568;DHT22;24338;48.280;10.970;2023-04-06T10:28:42;10.80;63.20
38568;DHT22;24338;48.280;10.970;2023-04-06T10:31:10;10.70;60.70
38568;DHT22;24338;48.280;10.970;2023-04-06T10:33:36;10.70;64.30
38568;DHT22;24338;48.280;10.970;2023-04-06T10:38:38;11.20;64.80
38568;DHT22;24338;48.280;10.970;2023-04-06T10:41:08;11.40;63.30
38568;DHT22;24338;48.280;10.970;2023-04-06T10:43:38;11.70;62.80
38568;DHT22;24338;48.280;10.970;2023-04-06T10:46:06;11.60;63.90
38568;DHT22;24338;48.280;10.970;2023-04-06T10:48:43;11.40;63.60
38568;DHT22;24338;48.280;10.970;2023-04-06T10:51:16;11.40;62.90
38568;DHT22;24338;48.280;10.970;2023-04-06T10:53:45;11.30;63.70
38568;DHT22;24338;48.280;10.970;2023-04-06T10:56:15;11.50;63.90
38568;DHT22;24338;48.280;10.970;2023-04-06T10:58:50;11.70;64.20
38568;DHT22;24338;48.280;10.970;2023-04-06T11:01:19;11.70;64.40
38568;DHT22;24338;48.280;10.970;2023-04-06T11:03:52;11.50;62.20
38568;DHT22;24338;48.280;10.970;2023-04-06T11:06:27;11.60;66.70
38568;DHT22;24338;48.280;10.970;2023-04-06T11:08:55;11.90;63.90
38568;DHT22;24338;48.280;10.970;2023-04-06T11:11:24;12.30;62.60
38568;DHT22;24338;48.280;10.970;2023-04-06T11:13:57;12.60;63.20
38568;DHT22;24338;48.280;10.970;2023-04-06T11:16:29;13.00;61.10
38568;DHT22;24338;48.280;10.970;2023-04-06T11:19:01;13.30;61.90
38568;DHT22;24338;48.280;10.970;2023-04-06T11:21:35;13.50;63.20
38568;DHT22;24338;48.280;10.970;2023-04-06T11:24:14;13.30;59.00
38568;DHT22;24338;48.280;10.970;2023-04-06T11:26:48;12.70;58.80
38568;DHT22;24338;48.280;10.970;2023-04-06T11:29:17;12.30;60.00
38568;DHT22;24338;48.280;10.970;2023-04-06T11:31:51;11.70;60.70
38568;DHT22;24338;48.280;10.970;2023-04-06T11:34:23;11.50;61.40
38568;DHT22;24338;48.280;10.970;2023-04-06T11:36:56;11.20;61.40
38568;DHT22;24338;48.280;10.970;2023-04-06T11:39:25;11.00;62.90
38568;DHT22;24338;48.280;10.970;2023-04-06T11:41:59;10.80;62.20
38568;DHT22;24338;48.280;10.970;2023-04-06T11:47:06;10.70;63.30
38568;DHT22;24338;48.280;10.970;2023-04-06T11:49:36;10.80;64.10
38568;DHT22;24338;48.280;10.970;2023-04-06T11:52:13;10.90;62.20
38568;DHT22;24338;48.280;10.970;2023-04-06T11:54:40;10.90;62.80
38568;DHT22;24338;48.280;10.970;2023-04-06T11:57:08;11.00;64.50
38568;DHT22;24338;48.280;10.970;2023-04-06T11:59:35;11.40;62.50
38568;DHT22;24338;48.280;10.970;2023-04-06T12:02:03;11.50;61.10
38568;DHT22;24338;48.280;10.970;2023-04-06T12:04:30;12.00;63.50
38568;DHT22;24338;48.280;10.970;2023-04-06T12:06:58;12.70;65.30
38568;DHT22;24338;48.280;10.970;2023-04-06T12:38:58;13.00;53.10
38568;DHT22;24338;48.280;10.970;2023-04-06T12:41:28;13.70;54.30
38568;DHT22;24338;48.280;10.970;2023-04-06T12:43:55;13.50;52.70
38568;DHT22;24338;48.280;10.970;2023-04-06T12:46:23;13.80;55.80
38568;DHT22;24338;48.280;10.970;2023-04-06T12:48:51;14.10;55.80
38568;DHT22;24338;48.280;10.970;2023-04-06T12:51:20;14.30;51.50
38568;DHT22;24338;48.280;10.970;2023-04-06T12:53:47;14.40;54.40
38568;DHT22;24338;48.280;10.970;2023-04-06T12:56:16;14.20;53.40
38568;DHT22;24338;48.280;10.970;2023-04-06T12:58:47;14.80;55.70
38568;DHT22;24338;48.280;10.970;2023-04-06T13:01:16;15.00;50.90
38568;DHT22;24338;48.280;10.970;2023-04-06T13:03:46;15.20;52.30
38568;DHT22;24338;48.280;10.970;2023-04-06T13:06:13;14.80;49.10
38568;DHT22;24338;48.280;10.970;2023-04-06T13:08:41;15.00;51.90
38568;DHT22;24338;48.280;10.970;2023-04-06T13:11:09;15.10;50.40
38568;DHT22;24338;48.280;10.970;2023-04-06T13:13:36;15.20;53.00
38568;DHT22;24338;48.280;10.970;2023-04-06T13:16:06;14.90;50.30
38568;DHT22;24338;48.280;10.970;2023-04-06T13:18:34;14.60;50.90
38568;DHT22;24338;48.280;10.970;2023-04-06T13:21:03;14.00;50.90
38568;DHT22;24338;48.280;10.970;2023-04-06T13:23:31;13.40;52.60
38568;DHT22;24338;48.280;10.970;2023-04-06T13:26:05;13.50;54.40
38568;DHT22;24338;48.280;10.970;2023-04-06T13:28:34;13.60;52.50
38568;DHT22;24338;48.280;10.970;2023-04-06T13:31:06;13.40;53.80
38568;DHT22;24338;48.280;10.970;2023-04-06T13:33:33;13.10;53.80
38568;DHT22;24338;48.280;10.970;2023-04-06T13:36:01;13.00;53.40
38568;DHT22;24338;48.280;10.970;2023-04-06T13:38:31;13.10;53.10
38568;DHT22;24338;48.280;10.970;2023-04-06T13:40:58;13.50;56.20
38568;DHT22;24338;48.280;10.970;2023-04-06T13:43:27;13.30;56.00
38568;DHT22;24338;48.280;10.970;2023-04-06T13:45:55;13.00;56.50
38568;DHT22;24338;48.280;10.970;2023-04-06T13:48:22;13.10;54.20
38568;DHT22;24338;48.280;10.970;2023-04-06T13:50:49;13.30;56.40
38568;DHT22;24338;48.280;10.970;2023-04-06T13:53:16;13.20;54.30
38568;DHT22;24338;48.280;10.970;2023-04-06T13:55:47;13.00;55.70
38568;DHT22;24338;48.280;10.970;2023-04-06T13:58:18;12.90;54.70
38568;DHT22;24338;48.280;10.970;2023-04-06T14:00:47;12.70;54.20
38568;DHT22;24338;48.280;10.970;2023-04-06T14:03:14;12.60;54.90
38568;DHT22;24338;48.280;10.970;2023-04-06T14:05:45;12.70;54.70
38568;DHT22;24338;48.280;10.970;2023-04-06T14:08:12;13.10;54.70
38568;DHT22;24338;48.280;10.970;2023-04-06T14:10:41;12.90;55.50
38568;DHT22;24338;48.280;10.970;2023-04-06T14:13:11;13.20;53.50
38568;DHT22;24338;48.280;10.970;2023-04-06T14:15:38;13.30;52.10
38568;DHT22;24338;48.280;10.970;2023-04-06T14:18:05;13.60;53.00
38568;DHT22;24338;48.280;10.970;2023-04-06T16:20:18;11.90;55.90
38568;DHT22;24338;48.280;10.970;2023-04-06T16:22:45;11.60;55.60
38568;DHT22;24338;48.280;10.970;2023-04-06T16:25:11;11.50;55.90
38568;DHT22;24338;48.280;10.970;2023-04-06T16:27:38;11.40;55.20
38568;DHT22;24338;48.280;10.970;2023-04-06T16:30:06;11.40;57.30
38568;DHT22;24338;48.280;10.970;2023-04-06T16:32:33;11.40;59.00
38568;DHT22;24338;48.280;10.970;2023-04-06T16:35:02;11.40;56.00
38568;DHT22;24338;48.280;10.970;2023-04-06T16:37:29;11.30;57.10
38568;DHT22;24338;48.280;10.970;2023-04-06T16:39:56;11.20;58.00
38568;DHT22;24338;48.280;10.970;2023-04-06T16:42:23;11.20;58.10
38568;DHT22;24338;48.280;10.970;2023-04-06T16:44:50;11.10;56.80
38568;DHT22;24338;48.280;10.970;2023-04-06T16:47:17;11.00;58.30
38568;DHT22;24338;48.280;10.970;2023-04-06T16:49:43;10.90;59.60
38568;DHT22;24338;48.280;10.970;2023-04-06T16:52:10;10.80;59.00
38568;DHT22;24338;48.280;10.970;2023-04-06T16:54:37;10.70;58.70
38568;DHT22;24338;48.280;10.970;2023-04-06T16:57:04;10.60;59.60
38568;DHT22;24338;48.280;10.970;2023-04-06T16:59:32;10.50;57.60
38568;DHT22;24338;48.280;10.970;2023-04-06T17:01:59;10.40;58.80
38568;DHT22;24338;48.280;10.970;2023-04-06T17:04:26;10.20;58.00
38568;DHT22;24338;48.280;10.970;2023-04-06T17:06:53;10.20;58.40
38568;DHT22;24338;48.280;10.970;2023-04-06T17:09:19;10.10;59.20
38568;DHT22;24338;48.280;10.970;2023-04-06T17:11:47;10.00;59.40
38568;DHT22;24338;48.280;10.970;2023-04-06T17:14:17;9.80;58.30
38568;DHT22;24338;48.280;10.970;2023-04-06T17:16:44;9.80;59.00
38568;DHT22;24338;48.280;10.970;2023-04-06T17:19:11;9.60;60.00
38568;DHT22;24338;48.280;10.970;2023-04-06T17:21:39;9.50;60.80
38568;DHT22;24338;48.280;10.970;2023-04-06T17:24:07;9.40;60.60
38568;DHT22;24338;48.280;10.970;2023-04-06T17:26:34;9.40;58.90
38568;DHT22;24338;48.280;10.970;2023-04-06T17:29:01;9.30;60.90
38568;DHT22;24338;48.280;10.970;2023-04-06T17:31:28;9.20;61.60
38568;DHT22;24338;48.280;10.970;2023-04-06T17:33:55;9.10;62.10
38568;DHT22;24338;48.280;10.970;2023-04-06T17:36:22;8.90;63.00
38568;DHT22;24338;48.280;10.970;2023-04-06T17:38:49;8.80;62.20
38568;DHT22;24338;48.280;10.970;2023-04-06T17:41:16;8.70;62.90
38568;DHT22;24338;48.280;10.970;2023-04-06T17:43:43;8.60;62.60
38568;DHT22;24338;48.280;10.970;2023-04-06T17:46:10;8.50;63.10
38568;DHT22;24338;48.280;10.970;2023-04-06T17:48:37;8.40;64.60
38568;DHT22;24338;48.280;10.970;2023-04-06T17:51:04;8.30;65.10
38568;DHT22;24338;48.280;10.970;2023-04-06T17:53:31;8.20;65.40
38568;DHT22;24338;48.280;10.970;2023-04-06T17:56:03;8.10;67.50
38568;DHT22;24338;48.280;10.970;2023-04-06T17:58:30;7.90;68.70
38568;DHT22;24338;48.280;10.970;2023-04-06T18:00:57;7.80;70.60